Time;durP1;ratioP1;P1;durP2;ratioP2;P2;SDS_P1;SDS_P2;PMS_P1;PMS_P2;Temp;Humidity;BMP_temperature;BMP_pressure;BME280_temperature;BME280_humidity;BME280_pressure;Samples;Min_cycle;Max_cycle;Signal;HPM_P1;HPM_P2
2021/09/11 00:09:28;;;;;;;5.57;2.53;;;17.40;99.90;;;;;;20484180;28;20047;-44
2021/09/11 00:19:29;;;;;;;4.30;1.92;;;17.40;99.90;;;;;;20464016;28;20455;-44
2021/09/11 00:29:31;;;;;;;5.57;2.40;;;17.20;99.90;;;;;;20491362;28;20059;-44
2021/09/11 00:39:32;;;;;;;5.82;2.33;;;17.00;99.90;;;;;;20481611;28;20054;-44
2021/09/11 00:49:33;;;;;;;5.97;2.38;;;16.90;99.90;;;;;;20496125;28;20043;-43
2021/09/11 00:59:35;;;;;;;9.45;2.97;;;16.90;99.90;;;;;;20466466;28;20047;-44
2021/09/11 01:09:36;;;;;;;6.53;2.78;;;16.90;99.90;;;;;;20476941;28;20040;-44
2021/09/11 01:19:38;;;;;;;8.70;3.15;;;16.80;99.90;;;;;;20464450;28;20050;-44
2021/09/11 01:29:39;;;;;;;8.02;3.33;;;16.70;99.90;;;;;;20468590;28;20062;-44
2021/09/11 01:39:40;;;;;;;13.20;4.25;;;16.70;99.90;;;;;;20466402;28;20487;-44
2021/09/11 01:49:42;;;;;;;10.75;4.05;;;16.60;99.90;;;;;;20494581;28;20059;-44
2021/09/11 01:59:44;;;;;;;9.50;4.13;;;16.60;99.90;;;;;;20496323;28;20069;-44
2021/09/11 02:09:45;;;;;;;7.07;3.10;;;16.50;99.90;;;;;;20477366;28;20047;-44
2021/09/11 02:19:47;;;;;;;10.57;3.25;;;16.50;99.90;;;;;;20499947;28;20035;-44
2021/09/11 02:29:48;;;;;;;8.48;3.20;;;16.50;99.90;;;;;;20501856;28;20077;-44
2021/09/11 02:39:50;;;;;;;8.85;2.75;;;16.50;99.90;;;;;;20497458;28;20046;-43
2021/09/11 02:49:52;;;;;;;9.70;3.53;;;16.60;99.90;;;;;;20489948;28;20042;-43
2021/09/11 02:59:53;;;;;;;7.22;2.95;;;16.70;99.90;;;;;;20495917;28;20044;-43
2021/09/11 03:09:54;;;;;;;8.55;2.72;;;16.80;99.90;;;;;;20499027;28;20056;-44
2021/09/11 03:19:55;;;;;;;10.65;2.92;;;16.80;99.90;;;;;;20493955;28;20051;-43
2021/09/11 03:29:56;;;;;;;10.45;3.08;;;16.90;99.90;;;;;;20489904;28;20051;-44
2021/09/11 03:39:57;;;;;;;8.60;2.47;;;16.90;99.90;;;;;;20490446;28;20357;-43
2021/09/11 03:49:59;;;;;;;10.20;2.65;;;17.00;99.90;;;;;;20482078;28;20656;-43
2021/09/11 04:00:00;;;;;;;9.23;3.50;;;17.00;99.90;;;;;;20509648;28;20490;-43
2021/09/11 04:10:08;;;;;;;11.20;3.53;;;16.90;99.90;;;;;;20494609;28;20051;-43
2021/09/11 04:20:09;;;;;;;11.85;4.05;;;17.00;99.90;;;;;;20529260;28;20403;-43
2021/09/11 04:30:11;;;;;;;9.63;3.38;;;17.00;99.90;;;;;;20501741;28;20054;-43
2021/09/11 04:40:13;;;;;;;11.98;4.32;;;17.00;99.90;;;;;;20508589;28;20062;-43
2021/09/11 04:50:14;;;;;;;6.75;3.00;;;17.10;99.90;;;;;;20509094;28;20055;-43
2021/09/11 05:00:15;;;;;;;15.13;3.67;;;17.00;99.90;;;;;;20501135;28;20031;-43
2021/09/11 05:10:16;;;;;;;7.95;3.30;;;17.00;99.90;;;;;;20491282;28;20054;-44
2021/09/11 05:20:17;;;;;;;10.43;4.22;;;17.00;99.90;;;;;;20506390;28;20050;-43
2021/09/11 05:30:19;;;;;;;8.82;3.63;;;17.10;99.90;;;;;;20503961;28;20055;-43
2021/09/11 05:40:20;;;;;;;6.78;2.38;;;17.10;99.90;;;;;;20502346;28;20106;-43
2021/09/11 05:50:23;;;;;;;18.88;5.45;;;17.10;99.90;;;;;;20482962;28;20093;-44
2021/09/11 06:00:24;;;;;;;11.82;3.72;;;17.10;99.90;;;;;;20475038;28;20050;-45
2021/09/11 06:10:25;;;;;;;9.90;4.38;;;17.10;99.90;;;;;;20468802;28;20055;-44
2021/09/11 06:20:26;;;;;;;9.88;3.75;;;17.10;99.90;;;;;;20487852;28;20132;-44
2021/09/11 06:30:28;;;;;;;13.30;3.83;;;17.20;99.90;;;;;;20477319;28;20081;-44
2021/09/11 06:40:29;;;;;;;13.20;4.35;;;17.20;99.90;;;;;;20462255;28;20339;-43
2021/09/11 06:50:37;;;;;;;11.40;5.20;;;17.20;99.90;;;;;;21055688;27;20754;-44
2021/09/11 07:00:38;;;;;;;13.20;4.57;;;17.40;99.90;;;;;;21038869;28;20391;-44
2021/09/11 07:10:42;;;;;;;12.80;4.65;;;17.40;99.90;;;;;;21058993;28;20040;-44
2021/09/11 07:20:43;;;;;;;12.48;5.18;;;17.50;99.90;;;;;;21051837;28;20037;-44
2021/09/11 07:30:45;;;;;;;17.10;6.07;;;17.70;99.90;;;;;;21054047;28;20028;-44
2021/09/11 07:40:46;;;;;;;9.73;4.32;;;17.80;99.90;;;;;;21029615;28;20399;-44
2021/09/11 07:50:47;;;;;;;10.27;3.83;;;17.90;99.90;;;;;;21045768;28;20044;-44
2021/09/11 08:00:48;;;;;;;10.35;3.97;;;18.00;99.90;;;;;;21008749;28;20071;-44
2021/09/11 08:10:50;;;;;;;12.40;4.82;;;18.20;99.90;;;;;;21006642;28;20045;-44
2021/09/11 08:20:53;;;;;;;11.32;3.67;;;18.30;99.90;;;;;;20992339;28;20511;-44
2021/09/11 08:30:55;;;;;;;8.18;3.55;;;18.50;99.90;;;;;;20999687;28;20595;-44
2021/09/11 08:40:59;;;;;;;9.00;3.65;;;18.80;99.90;;;;;;21008270;28;20423;-44
2021/09/11 08:51:01;;;;;;;10.27;4.68;;;19.00;99.90;;;;;;20978373;28;20052;-44
2021/09/11 09:01:03;;;;;;;12.70;4.55;;;19.30;99.90;;;;;;20992718;28;20037;-45
2021/09/11 09:11:19;;;;;;;10.90;3.83;;;19.30;99.90;;;;;;20996075;28;20053;-44
2021/09/11 09:21:27;;;;;;;19.25;5.57;;;18.90;99.90;;;;;;20980416;28;20067;-44
2021/09/11 09:31:28;;;;;;;;;;;19.10;99.90;;;;;;20988664;28;20051;-44
2021/09/11 09:41:42;;;;;;;9.80;4.25;;;19.40;99.90;;;;;;21016282;28;20274;-45
2021/09/11 09:51:43;;;;;;;12.50;4.57;;;19.50;99.90;;;;;;20993718;28;20039;-45
2021/09/11 10:01:44;;;;;;;10.18;4.43;;;19.70;99.90;;;;;;20964886;28;20048;-45
2021/09/11 10:11:51;;;;;;;11.85;4.70;;;19.90;99.90;;;;;;20976012;28;20033;-45
2021/09/11 10:22:07;;;;;;;10.00;4.17;;;20.10;99.90;;;;;;20968860;28;20059;-45
2021/09/11 10:32:11;;;;;;;17.67;3.95;;;19.90;99.90;;;;;;20991172;28;20636;-44
2021/09/11 10:42:12;;;;;;;14.13;4.55;;;20.00;99.90;;;;;;20984951;28;20822;-45
2021/09/11 10:52:13;;;;;;;7.95;3.97;;;20.10;99.90;;;;;;20996992;28;20059;-45
2021/09/11 11:02:30;;;;;;;10.27;3.70;;;20.20;99.90;;;;;;20976714;28;20048;-45
2021/09/11 11:12:37;;;;;;;7.82;3.88;;;20.50;99.90;;;;;;20964998;28;20039;-45
2021/09/11 11:22:40;;;;;;;9.67;3.60;;;21.20;99.90;;;;;;20992758;28;20060;-45
2021/09/11 11:32:41;;;;;;;7.05;3.42;;;21.40;99.90;;;;;;20985653;28;20234;-45
2021/09/11 11:42:45;;;;;;;6.40;3.15;;;21.10;99.90;;;;;;20990231;28;20396;-45
2021/09/11 11:52:53;;;;;;;6.10;2.72;;;21.00;99.90;;;;;;21010772;28;20048;-45
2021/09/11 12:02:55;;;;;;;6.25;2.90;;;20.90;99.90;;;;;;20982385;28;20056;-45
2021/09/11 12:13:05;;;;;;;5.78;3.15;;;20.70;99.90;;;;;;20984116;28;20049;-45
2021/09/11 12:23:15;;;;;;;10.13;2.58;;;21.30;99.90;;;;;;21010288;28;20057;-45
2021/09/11 12:33:16;;;;;;;4.05;1.10;;;20.90;99.90;;;;;;21006372;28;20029;-45
2021/09/11 12:43:17;;;;;;;2.92;1.15;;;20.00;99.90;;;;;;20984652;28;20504;-45
2021/09/11 12:53:19;;;;;;;3.78;1.60;;;19.40;99.90;;;;;;20967683;28;20037;-45
2021/09/11 13:03:20;;;;;;;3.33;1.33;;;19.40;99.90;;;;;;20968062;28;20041;-45
2021/09/11 13:13:21;;;;;;;4.03;1.30;;;19.50;99.90;;;;;;20993125;28;20052;-45
2021/09/11 13:23:22;;;;;;;5.82;1.98;;;19.90;99.90;;;;;;20983174;28;20052;-45
2021/09/11 13:33:23;;;;;;;4.70;1.63;;;20.30;99.90;;;;;;20969883;28;20037;-45
2021/09/11 13:43:25;;;;;;;3.65;1.20;;;20.60;99.90;;;;;;20991168;28;20373;-45
2021/09/11 13:53:26;;;;;;;4.32;2.00;;;20.60;99.90;;;;;;20958461;28;20514;-45
2021/09/11 14:03:27;;;;;;;7.68;2.75;;;20.50;99.90;;;;;;20982476;28;20048;-45
2021/09/11 14:13:28;;;;;;;6.93;2.47;;;20.40;99.90;;;;;;20965821;28;20443;-45
2021/09/11 14:23:30;;;;;;;8.00;3.20;;;20.30;99.90;;;;;;20958526;28;20094;-45
2021/09/11 14:33:31;;;;;;;7.38;2.45;;;20.40;99.90;;;;;;20965596;28;20051;-45
2021/09/11 14:43:34;;;;;;;6.90;3.15;;;20.50;99.90;;;;;;20954247;28;20055;-45
2021/09/11 14:53:35;;;;;;;7.57;3.13;;;20.50;99.90;;;;;;20956383;28;20048;-45
2021/09/11 15:03:36;;;;;;;6.30;2.60;;;20.50;99.90;;;;;;20964458;28;20044;-45
2021/09/11 15:13:37;;;;;;;6.43;3.00;;;20.60;99.90;;;;;;20977976;28;20055;-45
2021/09/11 15:23:38;;;;;;;6.13;2.63;;;20.60;99.90;;;;;;20971536;28;20052;-45
2021/09/11 15:33:40;;;;;;;6.72;2.50;;;20.60;99.90;;;;;;20978501;28;20086;-45
2021/09/11 15:43:41;;;;;;;9.38;2.53;;;20.70;99.90;;;;;;20968982;28;20445;-45
2021/09/11 15:53:43;;;;;;;5.93;2.63;;;20.60;99.90;;;;;;20972279;28;20117;-45
2021/09/11 16:03:44;;;;;;;6.85;2.22;;;20.60;99.90;;;;;;20946894;28;20032;-45
2021/09/11 16:13:46;;;;;;;9.25;3.65;;;20.40;99.90;;;;;;20960474;28;20048;-45
2021/09/11 16:23:47;;;;;;;12.32;2.97;;;20.20;99.90;;;;;;20966494;28;20036;-45
2021/09/11 16:33:49;;;;;;;7.88;2.35;;;20.20;99.90;;;;;;20964785;28;20036;-45
2021/09/11 16:43:53;;;;;;;7.57;2.60;;;20.10;99.90;;;;;;20967573;28;20087;-45
2021/09/11 16:53:54;;;;;;;7.95;2.85;;;20.10;99.90;;;;;;20967946;28;20499;-45
2021/09/11 17:03:56;;;;;;;5.28;2.95;;;20.00;99.90;;;;;;20967244;28;20048;-45
2021/09/11 17:13:57;;;;;;;15.63;3.65;;;19.90;99.90;;;;;;20961045;28;20052;-46
2021/09/11 17:23:58;;;;;;;5.97;2.58;;;19.80;99.90;;;;;;20964571;28;20045;-45
2021/09/11 17:33:59;;;;;;;6.90;2.72;;;19.70;99.90;;;;;;20961418;28;20422;-45
2021/09/11 17:44:01;;;;;;;5.90;2.30;;;19.60;99.90;;;;;;20964912;28;20485;-45
2021/09/11 17:54:03;;;;;;;9.35;2.60;;;19.60;99.90;;;;;;20974587;28;20488;-45
2021/09/11 18:04:04;;;;;;;7.88;2.75;;;19.50;99.90;;;;;;20975862;28;20416;-45
2021/09/11 18:14:05;;;;;;;6.85;2.80;;;19.40;99.90;;;;;;20970657;28;20045;-45
2021/09/11 18:24:08;;;;;;;8.60;4.95;;;19.30;99.90;;;;;;20967837;28;20036;-45
2021/09/11 18:34:09;;;;;;;8.45;3.03;;;19.20;99.90;;;;;;20963383;28;20408;-45
2021/09/11 18:44:11;;;;;;;8.63;3.70;;;19.20;99.90;;;;;;20952716;28;20071;-45
2021/09/11 18:54:12;;;;;;;8.98;3.17;;;19.10;99.90;;;;;;20961388;28;20048;-45
2021/09/11 19:04:13;;;;;;;11.25;3.63;;;19.10;99.90;;;;;;20959981;28;20048;-45
2021/09/11 19:14:15;;;;;;;7.35;2.92;;;19.00;99.90;;;;;;20977123;28;20573;-45
2021/09/11 19:24:16;;;;;;;7.68;3.28;;;19.00;99.90;;;;;;20968920;28;20055;-45
2021/09/11 19:34:18;;;;;;;10.35;3.60;;;19.00;99.90;;;;;;20960466;28;20037;-45
2021/09/11 19:44:19;;;;;;;9.18;3.63;;;19.00;99.90;;;;;;20964668;28;20049;-45
2021/09/11 19:54:21;;;;;;;8.27;3.30;;;18.90;99.90;;;;;;20993999;28;20395;-45
2021/09/11 20:04:22;;;;;;;7.90;2.97;;;18.90;99.90;;;;;;21003743;28;20056;-45
2021/09/11 20:14:23;;;;;;;4.90;2.10;;;18.80;99.90;;;;;;20991634;28;20037;-45
2021/09/11 20:24:25;;;;;;;6.43;2.80;;;18.80;99.90;;;;;;20992672;28;20075;-45
2021/09/11 20:34:26;;;;;;;4.90;2.10;;;18.80;99.90;;;;;;21000987;28;20055;-46
2021/09/11 20:44:27;;;;;;;4.35;2.03;;;18.70;99.90;;;;;;20993427;28;20052;-45
2021/09/11 20:54:28;;;;;;;6.25;1.75;;;18.60;99.90;;;;;;20970337;28;20032;-45
2021/09/11 21:04:29;;;;;;;7.85;1.60;;;18.60;99.90;;;;;;20974557;28;20044;-45
2021/09/11 21:14:30;;;;;;;5.68;0.85;;;18.50;99.90;;;;;;20972981;28;20361;-45
2021/09/11 21:24:32;;;;;;;2.97;0.95;;;18.50;99.90;;;;;;20975136;28;20036;-45
2021/09/11 21:34:33;;;;;;;6.53;0.77;;;18.40;99.90;;;;;;20971131;28;21054;-45
2021/09/11 21:44:34;;;;;;;2.75;0.57;;;18.40;99.90;;;;;;20971181;28;20052;-45
2021/09/11 21:54:35;;;;;;;3.90;0.75;;;18.40;99.90;;;;;;20977434;28;20379;-45
2021/09/11 22:04:36;;;;;;;2.38;0.55;;;18.30;99.90;;;;;;20979454;28;20518;-45
2021/09/11 22:14:38;;;;;;;1.00;0.32;;;18.30;99.90;;;;;;20961974;28;20059;-45
2021/09/11 22:24:39;;;;;;;3.92;0.60;;;18.30;99.90;;;;;;20962851;28;20119;-45
2021/09/11 22:34:40;;;;;;;1.08;0.50;;;18.20;99.90;;;;;;20959389;28;20037;-45
2021/09/11 22:44:42;;;;;;;1.40;0.60;;;18.20;99.90;;;;;;20960183;28;20060;-45
2021/09/11 22:54:43;;;;;;;7.00;1.35;;;18.20;99.90;;;;;;20967844;28;20049;-45
2021/09/11 23:04:44;;;;;;;7.55;1.17;;;18.20;99.90;;;;;;20959920;28;20044;-45
2021/09/11 23:14:45;;;;;;;5.05;1.10;;;18.10;99.90;;;;;;20963817;28;20041;-45
2021/09/11 23:24:46;;;;;;;3.58;1.20;;;18.10;99.90;;;;;;20963682;28;20420;-45
2021/09/11 23:34:47;;;;;;;3.33;1.60;;;18.00;99.90;;;;;;20974932;28;20028;-45
2021/09/11 23:44:48;;;;;;;3.17;1.00;;;17.90;99.90;;;;;;20973323;28;20092;-45
2021/09/11 23:54:49;;;;;;;6.32;1.27;;;17.90;99.90;;;;;;20974423;28;20036;-45
